Wind From: 11-12-2017 06:00 Until: 12-12-2017 06:00 warning for: Wind Level: Orange info button

Power and phone distribution networks may be disrupted for relatively long periods., Roofs and chimneys can be damaged. , Tree branches may break. , Vehicles can be deported. , Traffic may be disrupted, particularly on secondary roads in forest areas. Limit your trips. , Limit your speed in highway driving, especially if you drive a vehicle or hitch sensitive to wind. , Do not go for walks in forests or along the coast., In town, be vigilant against possible falling objects., Do not work on roofs and do not touch any electrical line fallen on the ground., Store or secure sensitive objects to wind or likely to be damaged., Always install power generators outside buildings. 


Meteo18 Weather Cam more information Meteo18 Weather Cam


Thunder radar more information blitzortung!


Rain radar more information rain snow radar


Visit our other weather sites:

Template documentation
and downloads

And another site



Weather Underground History page Text

Daily Summary for September 19, 2017 Units:  Both    English   Metric
« Previous Day
Next Day »
Daily Weekly Monthly Yearly Custom
  High: Low: Average:
Temperature: 59.2 °F /  15.1 °C 47.1 °F /  8.4 °C 52 °F /  11.1 °C
Dew Point: 51.1 °F /  10.6 °C 45.5 °F /  7.5 °C 47.8 °F /  8.8 °C
Humidity: 96 % 69 % 87 %
Wind Speed: 8 mph /  12.9 km/h - 1.2 mph /  2 km/h
Wind Gust: 12 mph /  19.3 km/h - -
Wind:- - WNW
Pressure: 30.3 in /  1024.9 hPa 30.1 in /  1020.5 hPa -
Precipitation: 0.28 in /  7.1 mm    
Historical Graphs
 
 
Tabular Data for September 19, 2017
Time Temperature Dew Point Pressure Wind Wind Speed Wind Gust Humidity Rainfall Rate (Hourly)
00:02 51.1 °F /  10.6 °C 46.8 °F /  8.2 °C 30.2 in /  1020.9 hPa Calm   1 mph /  1.6 km/h 85 % 0 in /  0.0 mm
00:07 51.3 °F /  10.7 °C 46.6 °F /  8.1 °C 30.2 in /  1020.9 hPa Calm   4 mph /  6.4 km/h 84 % 0 in /  0.0 mm
00:12 51.3 °F /  10.7 °C 46.6 °F /  8.1 °C 30.2 in /  1020.9 hPa Calm   4 mph /  6.4 km/h 84 % 0 in /  0.0 mm
00:17 51.3 °F /  10.7 °C 46.6 °F /  8.1 °C 30.2 in /  1020.9 hPa Calm   4 mph /  6.4 km/h 84 % 0 in /  0.0 mm
00:22 51.1 °F /  10.6 °C 46.8 °F /  8.2 °C 30.2 in /  1020.9 hPa Calm   3 mph /  4.8 km/h 85 % 0 in /  0.0 mm
00:27 50.9 °F /  10.5 °C 46.6 °F /  8.1 °C 30.2 in /  1020.9 hPa NNW 1 mph /  1.6 km/h 3 mph /  4.8 km/h 85 % 0 in /  0.0 mm
00:32 50.7 °F /  10.4 °C 46.4 °F /  8.0 °C 30.2 in /  1020.9 hPa Calm   2 mph /  3.2 km/h 85 % 0 in /  0.0 mm
00:42 50.4 °F /  10.2 °C 46.4 °F /  8.0 °C 30.2 in /  1020.9 hPa Calm   1 mph /  1.6 km/h 86 % 0 in /  0.0 mm
00:47 50.2 °F /  10.1 °C 46.4 °F /  8.0 °C 30.2 in /  1020.9 hPa NW 1 mph /  1.6 km/h 1 mph /  1.6 km/h 87 % 0 in /  0.0 mm
00:52 50.2 °F /  10.1 °C 46.4 °F /  8.0 °C 30.2 in /  1020.9 hPa Calm   2 mph /  3.2 km/h 87 % 0 in /  0.0 mm
00:57 50.4 °F /  10.2 °C 46.6 °F /  8.1 °C 30.1 in /  1020.5 hPa Calm   2 mph /  3.2 km/h 87 % 0 in /  0.0 mm
01:02 50.4 °F /  10.2 °C 46.6 °F /  8.1 °C 30.1 in /  1020.5 hPa Calm   2 mph /  3.2 km/h 87 % 0 in /  0.0 mm
01:07 50.5 °F /  10.3 °C 46.8 °F /  8.2 °C 30.1 in /  1020.5 hPa Calm   5 mph /  8.0 km/h 87 % 0 in /  0.0 mm
01:12 50.5 °F /  10.3 °C 46.8 °F /  8.2 °C 30.1 in /  1020.5 hPa NW 2 mph /  3.2 km/h 5 mph /  8.0 km/h 87 % 0 in /  0.0 mm
01:17 50.4 °F /  10.2 °C 46.6 °F /  8.1 °C 30.1 in /  1020.5 hPa NW 4 mph /  6.4 km/h 4 mph /  6.4 km/h 87 % 0 in /  0.0 mm
01:27 49.8 °F /  9.9 °C 46.4 °F /  8.0 °C 30.1 in /  1020.5 hPa Calm   4 mph /  6.4 km/h 88 % 0 in /  0.0 mm
01:32 49.6 °F /  9.8 °C 46.6 °F /  8.1 °C 30.1 in /  1020.5 hPa Calm   4 mph /  6.4 km/h 89 % 0 in /  0.0 mm
01:42 49.3 °F /  9.6 °C 46.4 °F /  8.0 °C 30.1 in /  1020.5 hPa Calm   4 mph /  6.4 km/h 90 % 0 in /  0.0 mm
01:47 49.1 °F /  9.5 °C 46.2 °F /  7.9 °C 30.1 in /  1020.5 hPa Calm   4 mph /  6.4 km/h 90 % 0 in /  0.0 mm
01:52 48.9 °F /  9.4 °C 46 °F /  7.8 °C 30.2 in /  1020.9 hPa WNW 2 mph /  3.2 km/h 3 mph /  4.8 km/h 90 % 0 in /  0.0 mm
01:57 48.7 °F /  9.3 °C 46.2 °F /  7.9 °C 30.2 in /  1020.9 hPa WNW 2 mph /  3.2 km/h 2 mph /  3.2 km/h 91 % 0 in /  0.0 mm
02:02 48.6 °F /  9.2 °C 46 °F /  7.8 °C 30.2 in /  1020.9 hPa Calm   2 mph /  3.2 km/h 91 % 0 in /  0.0 mm
02:12 48.2 °F /  9.0 °C 45.7 °F /  7.6 °C 30.2 in /  1020.9 hPa Calm   2 mph /  3.2 km/h 91 % 0 in /  0.0 mm
02:17 48 °F /  8.9 °C 45.5 °F /  7.5 °C 30.2 in /  1020.9 hPa Calm   1 mph /  1.6 km/h 91 % 0 in /  0.0 mm
02:22 47.8 °F /  8.8 °C 45.7 °F /  7.6 °C 30.2 in /  1020.9 hPa Calm   1 mph /  1.6 km/h 92 % 0 in /  0.0 mm
02:27 47.7 °F /  8.7 °C 45.5 °F /  7.5 °C 30.2 in /  1020.9 hPa West 1 mph /  1.6 km/h 1 mph /  1.6 km/h 92 % 0 in /  0.0 mm
02:32 47.7 °F /  8.7 °C 45.5 °F /  7.5 °C 30.2 in /  1020.9 hPa WNW 1 mph /  1.6 km/h 1 mph /  1.6 km/h 92 % 0 in /  0.0 mm
02:42 47.7 °F /  8.7 °C 45.7 °F /  7.6 °C 30.2 in /  1020.9 hPa Calm   1 mph /  1.6 km/h 93 % 0 in /  0.0 mm
02:47 47.5 °F /  8.6 °C 45.5 °F /  7.5 °C 30.2 in /  1020.9 hPa Calm   1 mph /  1.6 km/h 93 % 0 in /  0.0 mm
02:52 47.5 °F /  8.6 °C 45.5 °F /  7.5 °C 30.2 in /  1020.9 hPa Calm   1 mph /  1.6 km/h 93 % 0 in /  0.0 mm
02:57 47.5 °F /  8.6 °C 45.5 °F /  7.5 °C 30.2 in /  1020.9 hPa Calm     93 % 0 in /  0.0 mm
03:02 47.7 °F /  8.7 °C 46 °F /  7.8 °C 30.2 in /  1020.9 hPa Calm     94 % 0 in /  0.0 mm
03:07 47.7 °F /  8.7 °C 45.7 °F /  7.6 °C 30.2 in /  1020.9 hPa Calm   1 mph /  1.6 km/h 93 % 0 in /  0.0 mm
03:12 47.7 °F /  8.7 °C 46 °F /  7.8 °C 30.2 in /  1020.9 hPa Calm   2 mph /  3.2 km/h 94 % 0 in /  0.0 mm
03:17 47.7 °F /  8.7 °C 45.7 °F /  7.6 °C 30.2 in /  1020.9 hPa Calm   2 mph /  3.2 km/h 93 % 0 in /  0.0 mm
03:22 47.5 °F /  8.6 °C 45.9 °F /  7.7 °C 30.2 in /  1020.9 hPa Calm   1 mph /  1.6 km/h 94 % 0 in /  0.0 mm
03:32 47.5 °F /  8.6 °C 45.9 °F /  7.7 °C 30.1 in /  1020.5 hPa Calm   1 mph /  1.6 km/h 94 % 0 in /  0.0 mm
03:37 47.5 °F /  8.6 °C 45.9 °F /  7.7 °C 30.2 in /  1020.9 hPa Calm     94 % 0 in /  0.0 mm
03:42 47.5 °F /  8.6 °C 45.9 °F /  7.7 °C 30.1 in /  1020.5 hPa Calm     94 % 0 in /  0.0 mm
03:52 47.5 °F /  8.6 °C 45.9 °F /  7.7 °C 30.1 in /  1020.5 hPa Calm   1 mph /  1.6 km/h 94 % 0 in /  0.0 mm
03:57 47.5 °F /  8.6 °C 45.9 °F /  7.7 °C 30.1 in /  1020.5 hPa Calm   2 mph /  3.2 km/h 94 % 0 in /  0.0 mm
04:02 47.5 °F /  8.6 °C 45.9 °F /  7.7 °C 30.1 in /  1020.5 hPa NNW 2 mph /  3.2 km/h 2 mph /  3.2 km/h 94 % 0 in /  0.0 mm
04:07 47.7 °F /  8.7 °C 46 °F /  7.8 °C 30.1 in /  1020.5 hPa Calm   3 mph /  4.8 km/h 94 % 0 in /  0.0 mm
04:12 47.7 °F /  8.7 °C 46.2 °F /  7.9 °C 30.2 in /  1020.9 hPa Calm   3 mph /  4.8 km/h 95 % 0 in /  0.0 mm
04:17 47.8 °F /  8.8 °C 46.2 °F /  7.9 °C 30.1 in /  1020.5 hPa WNW 1 mph /  1.6 km/h 3 mph /  4.8 km/h 94 % 0 in /  0.0 mm
04:22 47.8 °F /  8.8 °C 46.2 °F /  7.9 °C 30.1 in /  1020.5 hPa Calm   3 mph /  4.8 km/h 94 % 0 in /  0.0 mm
04:27 48 °F /  8.9 °C 46.4 °F /  8.0 °C 30.1 in /  1020.5 hPa Calm   3 mph /  4.8 km/h 94 % 0 in /  0.0 mm
04:32 48 °F /  8.9 °C 46.4 °F /  8.0 °C 30.1 in /  1020.5 hPa Calm   3 mph /  4.8 km/h 94 % 0 in /  0.0 mm
04:37 48 °F /  8.9 °C 46.4 °F /  8.0 °C 30.1 in /  1020.5 hPa Calm   4 mph /  6.4 km/h 94 % 0 in /  0.0 mm
04:42 48 °F /  8.9 °C 46.4 °F /  8.0 °C 30.1 in /  1020.5 hPa NW 1 mph /  1.6 km/h 4 mph /  6.4 km/h 94 % 0 in /  0.0 mm
04:47 48.2 °F /  9.0 °C 46.6 °F /  8.1 °C 30.1 in /  1020.5 hPa Calm   2 mph /  3.2 km/h 94 % 0 in /  0.0 mm
04:52 48.4 °F /  9.1 °C 46.9 °F /  8.3 °C 30.1 in /  1020.5 hPa WNW 1 mph /  1.6 km/h 2 mph /  3.2 km/h 95 % 0 in /  0.0 mm
05:02 48.6 °F /  9.2 °C 46.9 °F /  8.3 °C 30.1 in /  1020.5 hPa Calm   3 mph /  4.8 km/h 94 % 0 in /  0.0 mm
05:12 48.2 °F /  9.0 °C 46.6 °F /  8.1 °C 30.1 in /  1020.5 hPa Calm   3 mph /  4.8 km/h 94 % 0 in /  0.0 mm
05:17 48 °F /  8.9 °C 46.4 °F /  8.0 °C 30.1 in /  1020.5 hPa Calm   1 mph /  1.6 km/h 94 % 0 in /  0.0 mm
05:22 48 °F /  8.9 °C 46.4 °F /  8.0 °C 30.1 in /  1020.5 hPa Calm   1 mph /  1.6 km/h 94 % 0 in /  0.0 mm
05:32 47.8 °F /  8.8 °C 46.2 °F /  7.9 °C 30.1 in /  1020.5 hPa Calm   1 mph /  1.6 km/h 94 % 0 in /  0.0 mm
05:42 47.7 °F /  8.7 °C 46 °F /  7.8 °C 30.1 in /  1020.5 hPa Calm   1 mph /  1.6 km/h 94 % 0 in /  0.0 mm
05:47 47.5 °F /  8.6 °C 45.9 °F /  7.7 °C 30.1 in /  1020.5 hPa Calm     94 % 0 in /  0.0 mm
05:52 47.5 °F /  8.6 °C 46 °F /  7.8 °C 30.1 in /  1020.5 hPa Calm     95 % 0 in /  0.0 mm
06:02 47.5 °F /  8.6 °C 46 °F /  7.8 °C 30.1 in /  1020.5 hPa Calm     95 % 0 in /  0.0 mm
06:12 47.3 °F /  8.5 °C 45.9 °F /  7.7 °C 30.1 in /  1020.5 hPa Calm     95 % 0 in /  0.0 mm
06:17 47.3 °F /  8.5 °C 45.9 °F /  7.7 °C 30.1 in /  1020.5 hPa Calm     95 % 0 in /  0.0 mm
06:22 47.1 °F /  8.4 °C 45.7 °F /  7.6 °C 30.1 in /  1020.5 hPa Calm     95 % 0 in /  0.0 mm
06:32 47.1 °F /  8.4 °C 45.7 °F /  7.6 °C 30.1 in /  1020.5 hPa Calm     95 % 0 in /  0.0 mm
06:42 47.1 °F /  8.4 °C 45.7 °F /  7.6 °C 30.2 in /  1020.9 hPa Calm   1 mph /  1.6 km/h 95 % 0 in /  0.0 mm
06:47 47.3 °F /  8.5 °C 45.9 °F /  7.7 °C 30.2 in /  1020.9 hPa Calm   1 mph /  1.6 km/h 95 % 0 in /  0.0 mm
06:52 47.3 °F /  8.5 °C 46.2 °F /  7.9 °C 30.2 in /  1020.9 hPa Calm   1 mph /  1.6 km/h 96 % 0 in /  0.0 mm
07:02 47.5 °F /  8.6 °C 46.4 °F /  8.0 °C 30.1 in /  1020.5 hPa Calm   1 mph /  1.6 km/h 96 % 0 in /  0.0 mm
07:12 47.7 °F /  8.7 °C 46.6 °F /  8.1 °C 30.1 in /  1020.5 hPa West 1 mph /  1.6 km/h 2 mph /  3.2 km/h 96 % 0 in /  0.0 mm
07:17 47.7 °F /  8.7 °C 46.6 °F /  8.1 °C 30.1 in /  1020.5 hPa Calm   2 mph /  3.2 km/h 96 % 0 in /  0.0 mm
07:22 47.8 °F /  8.8 °C 46.8 °F /  8.2 °C 30.2 in /  1020.9 hPa West 3 mph /  4.8 km/h 3 mph /  4.8 km/h 96 % 0 in /  0.0 mm
07:32 48.2 °F /  9.0 °C 47.1 °F /  8.4 °C 30.2 in /  1020.9 hPa West 2 mph /  3.2 km/h 3 mph /  4.8 km/h 96 % 0 in /  0.0 mm
07:37 48.4 °F /  9.1 °C 47.3 °F /  8.5 °C 30.2 in /  1020.9 hPa West 1 mph /  1.6 km/h 4 mph /  6.4 km/h 96 % 0 in /  0.0 mm
07:42 48.6 °F /  9.2 °C 47.5 °F /  8.6 °C 30.2 in /  1020.9 hPa West 1 mph /  1.6 km/h 4 mph /  6.4 km/h 96 % 0 in /  0.0 mm
07:47 48.6 °F /  9.2 °C 47.5 °F /  8.6 °C 30.1 in /  1020.5 hPa Calm   4 mph /  6.4 km/h 96 % 0 in /  0.0 mm
07:52 48.6 °F /  9.2 °C 47.5 °F /  8.6 °C 30.2 in /  1020.9 hPa West 1 mph /  1.6 km/h 4 mph /  6.4 km/h 96 % 0 in /  0.0 mm
07:57 48.6 °F /  9.2 °C 47.5 °F /  8.6 °C 30.2 in /  1020.9 hPa Calm   2 mph /  3.2 km/h 96 % 0 in /  0.0 mm
08:02 48.6 °F /  9.2 °C 47.1 °F /  8.4 °C 30.2 in /  1020.9 hPa Calm   2 mph /  3.2 km/h 95 % 0 in /  0.0 mm
08:12 48.7 °F /  9.3 °C 47.3 °F /  8.5 °C 30.2 in /  1020.9 hPa Calm   2 mph /  3.2 km/h 95 % 0 in /  0.0 mm
08:17 48.7 °F /  9.3 °C 47.3 °F /  8.5 °C 30.2 in /  1020.9 hPa Calm     95 % 0 in /  0.0 mm
08:22 48.7 °F /  9.3 °C 47.3 °F /  8.5 °C 30.2 in /  1020.9 hPa Calm     95 % 0 in /  0.0 mm
08:32 48.7 °F /  9.3 °C 47.3 °F /  8.5 °C 30.2 in /  1020.9 hPa Calm     95 % 0 in /  0.0 mm
08:42 48.7 °F /  9.3 °C 47.3 °F /  8.5 °C 30.2 in /  1020.9 hPa Calm     95 % 0.01 in /  0.3 mm
08:52 48.7 °F /  9.3 °C 47.3 °F /  8.5 °C 30.2 in /  1021.2 hPa Calm     95 % 0.01 in /  0.3 mm
08:57 48.9 °F /  9.4 °C 47.5 °F /  8.6 °C 30.2 in /  1021.2 hPa Calm     95 % 0.01 in /  0.3 mm
09:02 48.9 °F /  9.4 °C 47.5 °F /  8.6 °C 30.2 in /  1021.6 hPa WNW 1 mph /  1.6 km/h   95 % 0.01 in /  0.3 mm
09:12 48.9 °F /  9.4 °C 47.5 °F /  8.6 °C 30.2 in /  1021.6 hPa North 8 mph /  12.9 km/h 8 mph /  12.9 km/h 95 % 0.09 in /  2.3 mm
09:17 48.9 °F /  9.4 °C 47.5 °F /  8.6 °C 30.2 in /  1021.6 hPa WNW 5 mph /  8.0 km/h 11 mph /  17.7 km/h 95 % 0.2 in /  5.1 mm
09:22 48.9 °F /  9.4 °C 47.5 °F /  8.6 °C 30.2 in /  1021.6 hPa WNW 4 mph /  6.4 km/h 11 mph /  17.7 km/h 95 % 0.2 in /  5.1 mm
09:32 48.9 °F /  9.4 °C 47.3 °F /  8.5 °C 30.2 in /  1021.6 hPa NW 2 mph /  3.2 km/h 11 mph /  17.7 km/h 94 % 0.23 in /  5.8 mm
09:42 48.7 °F /  9.3 °C 47.1 °F /  8.4 °C 30.2 in /  1021.6 hPa SW 3 mph /  4.8 km/h 8 mph /  12.9 km/h 94 % 0.24 in /  6.1 mm
09:47 48.7 °F /  9.3 °C 47.1 °F /  8.4 °C 30.2 in /  1021.2 hPa SW 2 mph /  3.2 km/h 8 mph /  12.9 km/h 94 % 0.26 in /  6.6 mm
09:52 48.7 °F /  9.3 °C 47.1 °F /  8.4 °C 30.2 in /  1021.2 hPa WSW 1 mph /  1.6 km/h 8 mph /  12.9 km/h 94 % 0.26 in /  6.6 mm
10:02 48.7 °F /  9.3 °C 47.1 °F /  8.4 °C 30.2 in /  1021.2 hPa South 1 mph /  1.6 km/h 6 mph /  9.7 km/h 94 % 0.24 in /  6.1 mm
10:12 48.9 °F /  9.4 °C 47.3 °F /  8.5 °C 30.2 in /  1021.6 hPa Calm   5 mph /  8.0 km/h 94 % 0.17 in /  4.3 mm
10:17 49.3 °F /  9.6 °C 47.7 °F /  8.7 °C 30.2 in /  1021.6 hPa Calm   3 mph /  4.8 km/h 94 % 0.08 in /  2.0 mm
10:22 49.5 °F /  9.7 °C 47.8 °F /  8.8 °C 30.2 in /  1021.6 hPa Calm   3 mph /  4.8 km/h 94 % 0.08 in /  2.0 mm
10:32 49.8 °F /  9.9 °C 47.8 °F /  8.8 °C 30.2 in /  1021.6 hPa Calm   2 mph /  3.2 km/h 93 % 0.06 in /  1.5 mm
10:42 50.2 °F /  10.1 °C 48 °F /  8.9 °C 30.2 in /  1021.6 hPa Calm   1 mph /  1.6 km/h 92 % 0.02 in /  0.5 mm
10:52 51.1 °F /  10.6 °C 48.9 °F /  9.4 °C 30.2 in /  1021.6 hPa Calm   2 mph /  3.2 km/h 92 % 0.01 in /  0.3 mm
11:02 51.8 °F /  11.0 °C 48.7 °F /  9.3 °C 30.2 in /  1021.9 hPa Calm   2 mph /  3.2 km/h 89 % 0 in /  0.0 mm
11:12 52.9 °F /  11.6 °C 49.1 °F /  9.5 °C 30.2 in /  1021.6 hPa Calm   3 mph /  4.8 km/h 87 % 0 in /  0.0 mm
11:17 53.4 °F /  11.9 °C 49.6 °F /  9.8 °C 30.2 in /  1021.6 hPa NE 1 mph /  1.6 km/h 4 mph /  6.4 km/h 87 % 0 in /  0.0 mm
11:22 53.4 °F /  11.9 °C 48.7 °F /  9.3 °C 30.2 in /  1021.6 hPa NE 1 mph /  1.6 km/h 4 mph /  6.4 km/h 84 % 0 in /  0.0 mm
11:32 54 °F /  12.2 °C 49.6 °F /  9.8 °C 30.2 in /  1021.6 hPa ENE 2 mph /  3.2 km/h 5 mph /  8.0 km/h 85 % 0 in /  0.0 mm
11:42 54.1 °F /  12.3 °C 49.1 °F /  9.5 °C 30.2 in /  1021.6 hPa Calm   5 mph /  8.0 km/h 83 % 0 in /  0.0 mm
11:47 54.9 °F /  12.7 °C 50.2 °F /  10.1 °C 30.2 in /  1021.9 hPa Calm   5 mph /  8.0 km/h 84 % 0 in /  0.0 mm
11:52 55.2 °F /  12.9 °C 49.8 °F /  9.9 °C 30.2 in /  1021.9 hPa Calm   5 mph /  8.0 km/h 82 % 0 in /  0.0 mm
11:57 55.6 °F /  13.1 °C 49.8 °F /  9.9 °C 30.2 in /  1021.9 hPa NE 2 mph /  3.2 km/h 3 mph /  4.8 km/h 81 % 0 in /  0.0 mm
12:02 55.9 °F /  13.3 °C 50.2 °F /  10.1 °C 30.2 in /  1021.9 hPa NE 2 mph /  3.2 km/h 3 mph /  4.8 km/h 81 % 0 in /  0.0 mm
12:12 56.3 °F /  13.5 °C 50.2 °F /  10.1 °C 30.2 in /  1021.9 hPa Calm   4 mph /  6.4 km/h 80 % 0 in /  0.0 mm
12:17 56.7 °F /  13.7 °C 49.5 °F /  9.7 °C 30.2 in /  1021.9 hPa North 2 mph /  3.2 km/h 6 mph /  9.7 km/h 77 % 0 in /  0.0 mm
12:22 56.5 °F /  13.6 °C 49.3 °F /  9.6 °C 30.2 in /  1021.9 hPa Calm   6 mph /  9.7 km/h 77 % 0 in /  0.0 mm
12:27 56.3 °F /  13.5 °C 49.1 °F /  9.5 °C 30.2 in /  1021.9 hPa WNW 1 mph /  1.6 km/h 6 mph /  9.7 km/h 77 % 0 in /  0.0 mm
12:32 55.9 °F /  13.3 °C 49.8 °F /  9.9 °C 30.2 in /  1021.9 hPa West 4 mph /  6.4 km/h 6 mph /  9.7 km/h 80 % 0 in /  0.0 mm
12:42 54.7 °F /  12.6 °C 50 °F /  10.0 °C 30.2 in /  1021.9 hPa WSW 3 mph /  4.8 km/h 6 mph /  9.7 km/h 84 % 0 in /  0.0 mm
12:47 54.3 °F /  12.4 °C 49.8 °F /  9.9 °C 30.2 in /  1022.2 hPa WNW 4 mph /  6.4 km/h 6 mph /  9.7 km/h 85 % 0 in /  0.0 mm
12:52 54.3 °F /  12.4 °C 49.8 °F /  9.9 °C 30.2 in /  1022.2 hPa WSW 4 mph /  6.4 km/h 6 mph /  9.7 km/h 85 % 0 in /  0.0 mm
12:57 54.5 °F /  12.5 °C 49.5 °F /  9.7 °C 30.2 in /  1022.2 hPa WNW 4 mph /  6.4 km/h 6 mph /  9.7 km/h 83 % 0 in /  0.0 mm
13:02 54.7 °F /  12.6 °C 48.6 °F /  9.2 °C 30.2 in /  1022.2 hPa WNW 4 mph /  6.4 km/h 6 mph /  9.7 km/h 80 % 0 in /  0.0 mm
13:12 55.6 °F /  13.1 °C 48.6 °F /  9.2 °C 30.2 in /  1021.9 hPa West 1 mph /  1.6 km/h 8 mph /  12.9 km/h 77 % 0 in /  0.0 mm
13:17 55.9 °F /  13.3 °C 48.9 °F /  9.4 °C 30.2 in /  1021.9 hPa West 6 mph /  9.7 km/h 8 mph /  12.9 km/h 77 % 0 in /  0.0 mm
13:22 56.3 °F /  13.5 °C 48.9 °F /  9.4 °C 30.2 in /  1021.9 hPa WNW 3 mph /  4.8 km/h 8 mph /  12.9 km/h 76 % 0 in /  0.0 mm
13:32 56.7 °F /  13.7 °C 49.5 °F /  9.7 °C 30.2 in /  1022.2 hPa WNW 3 mph /  4.8 km/h 9 mph /  14.5 km/h 77 % 0 in /  0.0 mm
13:37 57 °F /  13.9 °C 49.5 °F /  9.7 °C 30.2 in /  1022.2 hPa Calm   12 mph /  19.3 km/h 76 % 0 in /  0.0 mm
13:42 57.6 °F /  14.2 °C 50 °F /  10.0 °C 30.2 in /  1022.2 hPa WSW 6 mph /  9.7 km/h 12 mph /  19.3 km/h 76 % 0 in /  0.0 mm
13:47 58.3 °F /  14.6 °C 51.1 °F /  10.6 °C 30.2 in /  1022.2 hPa WNW 6 mph /  9.7 km/h 8 mph /  12.9 km/h 77 % 0 in /  0.0 mm
13:52 57.4 °F /  14.1 °C 49.1 °F /  9.5 °C 30.2 in /  1022.2 hPa WNW 3 mph /  4.8 km/h 11 mph /  17.7 km/h 74 % 0 in /  0.0 mm
13:57 57.6 °F /  14.2 °C 50 °F /  10.0 °C 30.2 in /  1022.2 hPa West 4 mph /  6.4 km/h 11 mph /  17.7 km/h 76 % 0 in /  0.0 mm
14:02 57.6 °F /  14.2 °C 50 °F /  10.0 °C 30.2 in /  1022.6 hPa WNW 6 mph /  9.7 km/h 11 mph /  17.7 km/h 76 % 0 in /  0.0 mm
14:07 57.7 °F /  14.3 °C 49.8 °F /  9.9 °C 30.2 in /  1022.2 hPa NNW 4 mph /  6.4 km/h 11 mph /  17.7 km/h 75 % 0 in /  0.0 mm
14:12 57.9 °F /  14.4 °C 49.6 °F /  9.8 °C 30.2 in /  1022.2 hPa North 1 mph /  1.6 km/h 11 mph /  17.7 km/h 74 % 0 in /  0.0 mm
14:17 57.7 °F /  14.3 °C 49.8 °F /  9.9 °C 30.2 in /  1022.2 hPa West 5 mph /  8.0 km/h 11 mph /  17.7 km/h 75 % 0 in /  0.0 mm
14:22 57.7 °F /  14.3 °C 49.1 °F /  9.5 °C 30.2 in /  1022.2 hPa WNW 2 mph /  3.2 km/h 11 mph /  17.7 km/h 73 % 0 in /  0.0 mm
14:27 58.3 °F /  14.6 °C 49.6 °F /  9.8 °C 30.2 in /  1022.2 hPa NNE 2 mph /  3.2 km/h 11 mph /  17.7 km/h 73 % 0 in /  0.0 mm
14:37 59.2 °F /  15.1 °C 49.8 °F /  9.9 °C 30.2 in /  1022.2 hPa NNW 5 mph /  8.0 km/h 8 mph /  12.9 km/h 71 % 0 in /  0.0 mm
14:42 58.6 °F /  14.8 °C 49.6 °F /  9.8 °C 30.2 in /  1022.2 hPa North 6 mph /  9.7 km/h 9 mph /  14.5 km/h 72 % 0 in /  0.0 mm
14:52 57.7 °F /  14.3 °C 49.1 °F /  9.5 °C 30.2 in /  1022.6 hPa WNW 3 mph /  4.8 km/h 9 mph /  14.5 km/h 73 % 0 in /  0.0 mm
15:02 57.7 °F /  14.3 °C 49.5 °F /  9.7 °C 30.2 in /  1022.2 hPa NW 2 mph /  3.2 km/h 9 mph /  14.5 km/h 74 % 0 in /  0.0 mm
15:07 57.7 °F /  14.3 °C 49.5 °F /  9.7 °C 30.2 in /  1022.2 hPa North 2 mph /  3.2 km/h 8 mph /  12.9 km/h 74 % 0 in /  0.0 mm
15:12 57.9 °F /  14.4 °C 48.6 °F /  9.2 °C 30.2 in /  1022.2 hPa WNW 3 mph /  4.8 km/h 8 mph /  12.9 km/h 71 % 0 in /  0.0 mm
15:17 58.3 °F /  14.6 °C 48.9 °F /  9.4 °C 30.2 in /  1022.2 hPa WNW 6 mph /  9.7 km/h 8 mph /  12.9 km/h 71 % 0 in /  0.0 mm
15:22 58.5 °F /  14.7 °C 48.4 °F /  9.1 °C 30.2 in /  1022.2 hPa WNW 4 mph /  6.4 km/h 11 mph /  17.7 km/h 69 % 0 in /  0.0 mm
15:32 57.9 °F /  14.4 °C 48.6 °F /  9.2 °C 30.2 in /  1022.2 hPa West 1 mph /  1.6 km/h 11 mph /  17.7 km/h 71 % 0 in /  0.0 mm
15:37 57.7 °F /  14.3 °C 48.7 °F /  9.3 °C 30.2 in /  1022.2 hPa NW 2 mph /  3.2 km/h 11 mph /  17.7 km/h 72 % 0 in /  0.0 mm
15:42 57.7 °F /  14.3 °C 48.7 °F /  9.3 °C 30.2 in /  1022.2 hPa NNE 6 mph /  9.7 km/h 11 mph /  17.7 km/h 72 % 0 in /  0.0 mm
15:47 57.6 °F /  14.2 °C 48.6 °F /  9.2 °C 30.2 in /  1022.2 hPa NW 3 mph /  4.8 km/h 7 mph /  11.3 km/h 72 % 0 in /  0.0 mm
15:52 57.6 °F /  14.2 °C 49.3 °F /  9.6 °C 30.2 in /  1022.2 hPa WNW 4 mph /  6.4 km/h 9 mph /  14.5 km/h 74 % 0 in /  0.0 mm
16:02 57.4 °F /  14.1 °C 48.4 °F /  9.1 °C 30.2 in /  1022.2 hPa WNW 3 mph /  4.8 km/h 9 mph /  14.5 km/h 72 % 0 in /  0.0 mm
16:07 57.2 °F /  14.0 °C 48.9 °F /  9.4 °C 30.2 in /  1022.2 hPa NW 3 mph /  4.8 km/h 8 mph /  12.9 km/h 74 % 0 in /  0.0 mm
16:12 57.4 °F /  14.1 °C 49.8 °F /  9.9 °C 30.2 in /  1022.2 hPa NNW 3 mph /  4.8 km/h 8 mph /  12.9 km/h 76 % 0 in /  0.0 mm
16:17 57.2 °F /  14.0 °C 48.9 °F /  9.4 °C 30.2 in /  1022.2 hPa NW 2 mph /  3.2 km/h 8 mph /  12.9 km/h 74 % 0 in /  0.0 mm
16:22 57 °F /  13.9 °C 48.4 °F /  9.1 °C 30.2 in /  1022.2 hPa WNW 1 mph /  1.6 km/h 8 mph /  12.9 km/h 73 % 0 in /  0.0 mm
16:32 56.7 °F /  13.7 °C 48 °F /  8.9 °C 30.2 in /  1022.2 hPa WNW 2 mph /  3.2 km/h 8 mph /  12.9 km/h 73 % 0 in /  0.0 mm
16:37 56.7 °F /  13.7 °C 48.4 °F /  9.1 °C 30.2 in /  1022.2 hPa West 2 mph /  3.2 km/h 7 mph /  11.3 km/h 74 % 0 in /  0.0 mm
16:42 56.5 °F /  13.6 °C 48.4 °F /  9.1 °C 30.2 in /  1022.2 hPa NW 3 mph /  4.8 km/h 7 mph /  11.3 km/h 74 % 0 in /  0.0 mm
16:52 56.5 °F /  13.6 °C 48.9 °F /  9.4 °C 30.2 in /  1022.2 hPa NW 4 mph /  6.4 km/h 8 mph /  12.9 km/h 76 % 0 in /  0.0 mm
17:02 56.5 °F /  13.6 °C 48.9 °F /  9.4 °C 30.2 in /  1022.6 hPa WNW 3 mph /  4.8 km/h 7 mph /  11.3 km/h 76 % 0 in /  0.0 mm
17:07 56.5 °F /  13.6 °C 48.9 °F /  9.4 °C 30.2 in /  1022.6 hPa WNW 2 mph /  3.2 km/h 8 mph /  12.9 km/h 76 % 0 in /  0.0 mm
17:12 56.5 °F /  13.6 °C 48.7 °F /  9.3 °C 30.2 in /  1022.6 hPa NW 2 mph /  3.2 km/h 8 mph /  12.9 km/h 75 % 0 in /  0.0 mm
17:17 56.5 °F /  13.6 °C 48.9 °F /  9.4 °C 30.2 in /  1022.6 hPa NNW 1 mph /  1.6 km/h 8 mph /  12.9 km/h 76 % 0 in /  0.0 mm
17:22 56.5 °F /  13.6 °C 48.9 °F /  9.4 °C 30.2 in /  1022.6 hPa NW 2 mph /  3.2 km/h 5 mph /  8.0 km/h 76 % 0 in /  0.0 mm
17:32 56.3 °F /  13.5 °C 48.6 °F /  9.2 °C 30.2 in /  1022.6 hPa NW 2 mph /  3.2 km/h 8 mph /  12.9 km/h 75 % 0 in /  0.0 mm
17:37 56.3 °F /  13.5 °C 48.9 °F /  9.4 °C 30.2 in /  1022.6 hPa NW 3 mph /  4.8 km/h 8 mph /  12.9 km/h 76 % 0 in /  0.0 mm
17:42 56.3 °F /  13.5 °C 49.1 °F /  9.5 °C 30.2 in /  1022.6 hPa WNW 1 mph /  1.6 km/h 8 mph /  12.9 km/h 77 % 0 in /  0.0 mm
17:52 56.3 °F /  13.5 °C 49.1 °F /  9.5 °C 30.2 in /  1022.6 hPa WNW 3 mph /  4.8 km/h 6 mph /  9.7 km/h 77 % 0 in /  0.0 mm
17:57 56.3 °F /  13.5 °C 49.1 °F /  9.5 °C 30.2 in /  1022.6 hPa Calm   6 mph /  9.7 km/h 77 % 0 in /  0.0 mm
18:02 56.3 °F /  13.5 °C 49.1 °F /  9.5 °C 30.2 in /  1022.9 hPa NW 1 mph /  1.6 km/h 6 mph /  9.7 km/h 77 % 0 in /  0.0 mm
18:12 56.1 °F /  13.4 °C 48.7 °F /  9.3 °C 30.2 in /  1022.9 hPa NW 4 mph /  6.4 km/h 7 mph /  11.3 km/h 76 % 0 in /  0.0 mm
18:17 56.1 °F /  13.4 °C 48.7 °F /  9.3 °C 30.2 in /  1022.9 hPa WNW 1 mph /  1.6 km/h 7 mph /  11.3 km/h 76 % 0 in /  0.0 mm
18:22 56.1 °F /  13.4 °C 48.9 °F /  9.4 °C 30.2 in /  1022.9 hPa WNW 1 mph /  1.6 km/h 7 mph /  11.3 km/h 77 % 0 in /  0.0 mm
18:32 56.5 °F /  13.6 °C 49.3 °F /  9.6 °C 30.2 in /  1022.9 hPa West 3 mph /  4.8 km/h 7 mph /  11.3 km/h 77 % 0 in /  0.0 mm
18:37 56.7 °F /  13.7 °C 49.5 °F /  9.7 °C 30.2 in /  1022.9 hPa NW 2 mph /  3.2 km/h 7 mph /  11.3 km/h 77 % 0 in /  0.0 mm
18:42 57 °F /  13.9 °C 49.8 °F /  9.9 °C 30.2 in /  1022.9 hPa WNW 2 mph /  3.2 km/h 5 mph /  8.0 km/h 77 % 0 in /  0.0 mm
18:47 57 °F /  13.9 °C 49.5 °F /  9.7 °C 30.2 in /  1022.9 hPa WNW 3 mph /  4.8 km/h 6 mph /  9.7 km/h 76 % 0 in /  0.0 mm
18:52 57 °F /  13.9 °C 49.5 °F /  9.7 °C 30.2 in /  1022.9 hPa Calm   6 mph /  9.7 km/h 76 % 0 in /  0.0 mm
19:02 57.2 °F /  14.0 °C 50 °F /  10.0 °C 30.2 in /  1023.2 hPa NW 2 mph /  3.2 km/h 6 mph /  9.7 km/h 77 % 0 in /  0.0 mm
19:07 57 °F /  13.9 °C 49.8 °F /  9.9 °C 30.2 in /  1023.2 hPa WNW 1 mph /  1.6 km/h 6 mph /  9.7 km/h 77 % 0 in /  0.0 mm
19:12 56.7 °F /  13.7 °C 49.8 °F /  9.9 °C 30.2 in /  1023.2 hPa West 3 mph /  4.8 km/h 6 mph /  9.7 km/h 78 % 0 in /  0.0 mm
19:17 55.9 °F /  13.3 °C 49.5 °F /  9.7 °C 30.2 in /  1023.2 hPa NW 4 mph /  6.4 km/h 6 mph /  9.7 km/h 79 % 0 in /  0.0 mm
19:22 55.6 °F /  13.1 °C 49.5 °F /  9.7 °C 30.2 in /  1023.6 hPa NNW 3 mph /  4.8 km/h 6 mph /  9.7 km/h 80 % 0 in /  0.0 mm
19:32 54.7 °F /  12.6 °C 49.6 °F /  9.8 °C 30.2 in /  1023.2 hPa WNW 1 mph /  1.6 km/h 5 mph /  8.0 km/h 83 % 0 in /  0.0 mm
19:42 54.1 °F /  12.3 °C 49.5 °F /  9.7 °C 30.2 in /  1023.6 hPa NNW 1 mph /  1.6 km/h 5 mph /  8.0 km/h 84 % 0 in /  0.0 mm
19:47 53.8 °F /  12.1 °C 49.5 °F /  9.7 °C 30.2 in /  1023.6 hPa Calm   5 mph /  8.0 km/h 85 % 0 in /  0.0 mm
19:52 53.6 °F /  12.0 °C 49.5 °F /  9.7 °C 30.2 in /  1023.6 hPa Calm   4 mph /  6.4 km/h 86 % 0 in /  0.0 mm
19:57 53.2 °F /  11.8 °C 49.1 °F /  9.5 °C 30.2 in /  1023.9 hPa Calm   3 mph /  4.8 km/h 86 % 0 in /  0.0 mm
20:02 52.9 °F /  11.6 °C 49.1 °F /  9.5 °C 30.2 in /  1023.9 hPa WNW 2 mph /  3.2 km/h 3 mph /  4.8 km/h 87 % 0 in /  0.0 mm
20:12 52.3 °F /  11.3 °C 48.9 °F /  9.4 °C 30.2 in /  1023.9 hPa WNW 1 mph /  1.6 km/h 5 mph /  8.0 km/h 88 % 0 in /  0.0 mm
20:17 52.3 °F /  11.3 °C 49.3 °F /  9.6 °C 30.2 in /  1023.9 hPa Calm   4 mph /  6.4 km/h 89 % 0 in /  0.0 mm
20:22 52.2 °F /  11.2 °C 49.1 °F /  9.5 °C 30.2 in /  1023.9 hPa Calm   3 mph /  4.8 km/h 89 % 0 in /  0.0 mm
20:32 52 °F /  11.1 °C 49.1 °F /  9.5 °C 30.2 in /  1023.9 hPa Calm   3 mph /  4.8 km/h 90 % 0 in /  0.0 mm
20:42 51.4 °F /  10.8 °C 48.6 °F /  9.2 °C 30.3 in /  1024.3 hPa WNW 2 mph /  3.2 km/h 3 mph /  4.8 km/h 90 % 0 in /  0.0 mm
20:52 51.3 °F /  10.7 °C 48.7 °F /  9.3 °C 30.3 in /  1024.3 hPa NNW 1 mph /  1.6 km/h 3 mph /  4.8 km/h 91 % 0 in /  0.0 mm
20:57 51.3 °F /  10.7 °C 48.7 °F /  9.3 °C 30.3 in /  1024.3 hPa Calm   2 mph /  3.2 km/h 91 % 0 in /  0.0 mm
21:02 51.1 °F /  10.6 °C 48.6 °F /  9.2 °C 30.3 in /  1024.3 hPa Calm   2 mph /  3.2 km/h 91 % 0 in /  0.0 mm
21:12 50.9 °F /  10.5 °C 48.7 °F /  9.3 °C 30.3 in /  1024.3 hPa Calm   1 mph /  1.6 km/h 92 % 0 in /  0.0 mm
21:17 50.9 °F /  10.5 °C 48.7 °F /  9.3 °C 30.3 in /  1024.3 hPa Calm   1 mph /  1.6 km/h 92 % 0 in /  0.0 mm
21:22 50.7 °F /  10.4 °C 48.6 °F /  9.2 °C 30.3 in /  1024.6 hPa Calm   1 mph /  1.6 km/h 92 % 0 in /  0.0 mm
21:27 50.5 °F /  10.3 °C 48.4 °F /  9.1 °C 30.3 in /  1024.6 hPa NW 2 mph /  3.2 km/h 2 mph /  3.2 km/h 92 % 0 in /  0.0 mm
21:32 50.5 °F /  10.3 °C 48.4 °F /  9.1 °C 30.3 in /  1024.6 hPa NW 1 mph /  1.6 km/h 1 mph /  1.6 km/h 92 % 0 in /  0.0 mm
21:37 50.4 °F /  10.2 °C 48.2 °F /  9.0 °C 30.3 in /  1024.6 hPa WNW 1 mph /  1.6 km/h 2 mph /  3.2 km/h 92 % 0 in /  0.0 mm
21:42 50.4 °F /  10.2 °C 48.4 °F /  9.1 °C 30.3 in /  1024.6 hPa Calm   2 mph /  3.2 km/h 93 % 0 in /  0.0 mm
21:47 50.4 °F /  10.2 °C 48.4 °F /  9.1 °C 30.3 in /  1024.6 hPa Calm   2 mph /  3.2 km/h 93 % 0 in /  0.0 mm
21:52 50.4 °F /  10.2 °C 48.4 °F /  9.1 °C 30.3 in /  1024.6 hPa NW 1 mph /  1.6 km/h 1 mph /  1.6 km/h 93 % 0 in /  0.0 mm
21:57 50.4 °F /  10.2 °C 48.4 °F /  9.1 °C 30.3 in /  1024.9 hPa Calm   2 mph /  3.2 km/h 93 % 0 in /  0.0 mm
22:02 50.5 °F /  10.3 °C 48.6 °F /  9.2 °C 30.3 in /  1024.9 hPa NW 1 mph /  1.6 km/h 2 mph /  3.2 km/h 93 % 0 in /  0.0 mm
22:12 50.5 °F /  10.3 °C 48.4 °F /  9.1 °C 30.3 in /  1024.9 hPa North 1 mph /  1.6 km/h 2 mph /  3.2 km/h 92 % 0 in /  0.0 mm
22:17 50.4 °F /  10.2 °C 48.2 °F /  9.0 °C 30.3 in /  1024.9 hPa NNW 1 mph /  1.6 km/h 2 mph /  3.2 km/h 92 % 0 in /  0.0 mm
22:22 50.4 °F /  10.2 °C 48.2 °F /  9.0 °C 30.3 in /  1024.9 hPa Calm   3 mph /  4.8 km/h 92 % 0 in /  0.0 mm
22:32 50.2 °F /  10.1 °C 48 °F /  8.9 °C 30.3 in /  1024.9 hPa North 1 mph /  1.6 km/h 3 mph /  4.8 km/h 92 % 0 in /  0.0 mm
22:42 50 °F /  10.0 °C 47.8 °F /  8.8 °C 30.3 in /  1024.9 hPa NNW 1 mph /  1.6 km/h 2 mph /  3.2 km/h 92 % 0 in /  0.0 mm
22:52 50 °F /  10.0 °C 47.8 °F /  8.8 °C 30.3 in /  1024.9 hPa Calm   3 mph /  4.8 km/h 92 % 0 in /  0.0 mm
22:57 50.2 °F /  10.1 °C 48 °F /  8.9 °C 30.3 in /  1024.9 hPa NW 1 mph /  1.6 km/h 3 mph /  4.8 km/h 92 % 0 in /  0.0 mm
23:02 50.2 °F /  10.1 °C 48 °F /  8.9 °C 30.3 in /  1024.9 hPa NW 1 mph /  1.6 km/h 3 mph /  4.8 km/h 92 % 0 in /  0.0 mm
23:07 50.2 °F /  10.1 °C 48 °F /  8.9 °C 30.3 in /  1024.9 hPa NW 2 mph /  3.2 km/h 3 mph /  4.8 km/h 92 % 0 in /  0.0 mm
23:12 50.2 °F /  10.1 °C 48 °F /  8.9 °C 30.3 in /  1024.9 hPa NW 2 mph /  3.2 km/h 3 mph /  4.8 km/h 92 % 0 in /  0.0 mm
23:17 50.4 °F /  10.2 °C 48.2 °F /  9.0 °C 30.3 in /  1024.9 hPa NW 1 mph /  1.6 km/h 3 mph /  4.8 km/h 92 % 0 in /  0.0 mm
23:22 50.4 °F /  10.2 °C 47.8 °F /  8.8 °C 30.3 in /  1024.9 hPa NW 1 mph /  1.6 km/h 3 mph /  4.8 km/h 91 % 0 in /  0.0 mm
23:32 49.8 °F /  9.9 °C 46.9 °F /  8.3 °C 30.3 in /  1024.9 hPa Calm   2 mph /  3.2 km/h 90 % 0 in /  0.0 mm
23:37 48.9 °F /  9.4 °C 46 °F /  7.8 °C 30.3 in /  1024.9 hPa Calm   2 mph /  3.2 km/h 90 % 0 in /  0.0 mm
23:42 48.7 °F /  9.3 °C 46.2 °F /  7.9 °C 30.3 in /  1024.9 hPa Calm   2 mph /  3.2 km/h 91 % 0 in /  0.0 mm
23:47 48.6 °F /  9.2 °C 46.4 °F /  8.0 °C 30.3 in /  1024.9 hPa Calm   1 mph /  1.6 km/h 92 % 0 in /  0.0 mm
23:52 48.6 °F /  9.2 °C 46.6 °F /  8.1 °C 30.3 in /  1024.9 hPa Calm   1 mph /  1.6 km/h 93 % 0 in /  0.0 mm
Meteo18
Compliments of Weather Underground - 4 mb

Script developed by  Jim McMurry - jmcmurry@mwt.net Adapted for the template by  Wim van der Kuil - Leuven-Template.eu

You find our weather info also at:

European Weather Network

Weather Underground

Equipment we use:

Weather-station
Davis Vue

Weather-program
Meteohub

Weather-server
Raspberry PI 2 B+

Provider
1 and 1

Davis Vue

Meteohub

Raspberry PI 2 B+

1 and 1